createdAt,value
2022-09-05T00:01:27.511Z,23.30
2022-09-05T00:04:25.112Z,27.30
2022-09-05T00:07:36.049Z,31.95
2022-09-05T00:10:25.807Z,30.25
2022-09-05T00:13:06.916Z,25.92
2022-09-05T00:15:43.659Z,21.30
2022-09-05T00:20:53.838Z,21.15
2022-09-05T00:24:32.401Z,27.48
2022-09-05T00:25:32.321Z,22.13
2022-09-05T00:28:28.805Z,25.80
2022-09-05T00:31:55.599Z,19.58
2022-09-05T00:34:50.922Z,22.77
2022-09-05T00:37:27.502Z,17.10
2022-09-05T00:40:18.687Z,18.35
2022-09-05T00:42:50.545Z,21.77
2022-09-05T00:45:37.926Z,23.35
2022-09-05T00:48:08.192Z,21.35
2022-09-05T00:50:58.434Z,23.60
2022-09-05T00:53:55.293Z,21.95
2022-09-05T00:56:59.299Z,22.73
2022-09-05T00:59:58.548Z,18.70
2022-09-05T01:02:51.136Z,23.45
2022-09-05T01:05:46.881Z,20.90
2022-09-05T01:08:34.493Z,25.73
2022-09-05T01:11:06.613Z,21.10
2022-09-05T01:13:48.554Z,26.67
2022-09-05T01:16:28.692Z,22.30
2022-09-05T01:19:40.670Z,21.52
2022-09-05T01:22:14.020Z,18.65
2022-09-05T01:25:02.777Z,20.88
2022-09-05T01:28:15.418Z,23.50
2022-09-05T01:30:37.425Z,17.65
2022-09-05T01:33:25.203Z,24.13
2022-09-05T01:36:07.188Z,18.95
2022-09-05T01:39:53.598Z,17.63
2022-09-05T01:42:08.913Z,22.27
2022-09-05T01:45:21.109Z,18.50
2022-09-05T01:48:19.609Z,18.25
2022-09-05T01:51:28.423Z,15.00
2022-09-05T01:54:25.127Z,14.13
2022-09-05T01:56:54.030Z,16.42
2022-09-05T01:59:38.026Z,15.48
2022-09-05T02:02:16.263Z,14.13
2022-09-05T02:04:52.691Z,15.18
2022-09-05T02:07:38.081Z,14.85
2022-09-05T02:10:31.413Z,14.60
2022-09-05T02:13:05.307Z,13.07
2022-09-05T02:15:53.849Z,15.40
2022-09-05T02:18:53.203Z,14.00
2022-09-05T02:21:56.166Z,14.35
2022-09-05T02:24:36.775Z,15.70
2022-09-05T02:27:40.272Z,19.38
2022-09-05T02:30:23.343Z,15.88
2022-09-05T02:33:17.009Z,16.35
2022-09-05T02:35:56.102Z,13.90
2022-09-05T02:41:17.164Z,17.25
2022-09-05T02:45:06.151Z,14.27
2022-09-05T02:45:20.465Z,13.70
2022-09-05T02:48:15.807Z,13.98
2022-09-05T02:57:24.512Z,15.73
2022-09-05T02:57:33.867Z,13.15
2022-09-05T02:57:36.528Z,13.77
2022-09-05T02:59:48.742Z,13.48
2022-09-05T03:02:28.274Z,17.48
2022-09-05T03:05:10.120Z,14.45
2022-09-05T03:07:46.545Z,18.98
2022-09-05T03:10:54.640Z,14.82
2022-09-05T03:13:54.034Z,19.05
2022-09-05T03:16:46.913Z,17.15
2022-09-05T03:19:46.467Z,19.77
2022-09-05T03:22:43.584Z,19.13
2022-09-05T03:25:19.695Z,18.45
2022-09-05T03:28:07.031Z,15.90
2022-09-05T03:31:06.211Z,15.50
2022-09-05T03:33:33.664Z,14.73
2022-09-05T03:36:16.728Z,13.30
2022-09-05T03:39:31.138Z,14.27
2022-09-05T03:42:14.787Z,14.85
2022-09-05T03:45:06.997Z,13.10
2022-09-05T03:47:52.767Z,13.27
2022-09-05T03:53:29.417Z,14.55
2022-09-05T03:57:28.491Z,13.90
2022-09-05T03:57:33.711Z,14.57
2022-09-05T04:00:09.725Z,14.60
2022-09-05T04:08:10.479Z,14.05
2022-09-05T04:08:20.389Z,16.70
2022-09-05T04:08:45.627Z,19.00
2022-09-05T04:11:18.243Z,12.65
2022-09-05T04:13:54.223Z,15.70
2022-09-05T04:16:24.832Z,16.05
2022-09-05T04:19:13.677Z,17.67
2022-09-05T04:22:11.607Z,15.98
2022-09-05T04:24:58.131Z,13.25
2022-09-05T04:27:58.367Z,16.98
2022-09-05T04:30:38.300Z,13.07
2022-09-05T04:33:22.173Z,15.88
2022-09-05T04:36:28.822Z,12.95
2022-09-05T04:39:17.917Z,14.60
2022-09-05T04:42:06.250Z,21.75
2022-09-05T04:44:44.972Z,13.90
2022-09-05T04:47:40.217Z,18.10
2022-09-05T04:50:11.930Z,19.33
2022-09-05T04:53:07.030Z,17.00
2022-09-05T04:55:50.771Z,16.65
2022-09-05T04:59:10.252Z,18.33
2022-09-05T05:06:11.233Z,18.48
2022-09-05T05:06:11.743Z,23.42
2022-09-05T05:07:26.468Z,18.48
2022-09-05T05:11:22.885Z,16.55
2022-09-05T05:17:25.355Z,21.50
2022-09-05T05:18:12.956Z,23.25
2022-09-05T05:19:02.967Z,25.77
2022-09-05T05:21:34.168Z,18.60
2022-09-05T05:24:10.645Z,19.73
2022-09-05T05:26:48.310Z,16.35
2022-09-05T05:29:48.178Z,15.85
2022-09-05T05:32:45.665Z,15.98
2022-09-05T05:35:48.054Z,18.67
2022-09-05T05:38:32.252Z,17.08
2022-09-05T05:41:18.716Z,16.92
2022-09-05T05:43:47.717Z,14.55
2022-09-05T05:46:28.354Z,12.85
2022-09-05T05:49:08.160Z,14.73
2022-09-05T05:52:00.893Z,15.65
2022-09-05T05:54:38.429Z,25.30
2022-09-05T05:57:35.201Z,20.20
2022-09-05T06:00:14.982Z,22.08
2022-09-05T06:03:25.336Z,20.27
2022-09-05T06:06:08.021Z,22.63
2022-09-05T06:11:15.999Z,20.85
2022-09-05T06:15:04.723Z,16.58
2022-09-05T06:15:27.722Z,15.07
2022-09-05T06:18:20.357Z,15.03
2022-09-05T06:22:06.423Z,14.98
2022-09-05T06:24:28.544Z,16.45
2022-09-05T06:27:02.042Z,13.30
2022-09-05T06:30:01.873Z,13.40
2022-09-05T06:33:02.961Z,9.73
2022-09-05T06:36:01.211Z,16.70
2022-09-05T06:41:22.958Z,11.15
2022-09-05T06:43:53.021Z,12.23
2022-09-05T06:47:23.050Z,15.05
2022-09-05T06:49:46.026Z,11.45
2022-09-05T06:52:29.526Z,14.75
2022-09-05T06:55:31.342Z,14.85
2022-09-05T06:58:17.734Z,13.18
2022-09-05T07:00:47.909Z,17.95
2022-09-05T07:03:39.468Z,21.50
2022-09-05T07:06:07.671Z,11.38
2022-09-05T07:08:54.192Z,15.15
2022-09-05T07:11:28.470Z,12.68
2022-09-05T07:14:09.065Z,10.35
2022-09-05T07:17:02.708Z,12.55
2022-09-05T07:20:03.797Z,10.25
2022-09-05T07:22:48.924Z,12.15
2022-09-05T07:25:26.383Z,10.75
2022-09-05T07:28:26.287Z,14.43
2022-09-05T07:31:03.747Z,12.32
2022-09-05T07:33:32.156Z,13.23
2022-09-05T07:36:09.227Z,9.60
2022-09-05T07:38:54.898Z,10.43
2022-09-05T07:41:39.705Z,9.68
2022-09-05T07:44:15.759Z,13.02
2022-09-05T07:46:49.102Z,7.50
2022-09-05T07:49:20.951Z,7.68
2022-09-05T07:56:46.362Z,5.90
2022-09-05T07:57:12.978Z,7.70
2022-09-05T08:00:29.335Z,7.10
2022-09-05T08:03:09.775Z,7.93
2022-09-05T08:05:48.194Z,6.25
2022-09-05T08:08:25.573Z,6.05
2022-09-05T08:11:23.361Z,8.60
2022-09-05T08:14:09.066Z,5.53
2022-09-05T08:16:47.044Z,9.15
2022-09-05T08:19:54.432Z,8.30
2022-09-05T08:22:30.901Z,4.45
2022-09-05T08:25:17.201Z,4.13
2022-09-05T08:28:10.979Z,10.25
2022-09-05T08:30:51.191Z,6.68
2022-09-05T08:33:25.115Z,3.78
2022-09-05T08:36:07.151Z,6.70
2022-09-05T08:38:40.601Z,6.18
2022-09-05T08:41:23.735Z,4.88
2022-09-05T08:46:42.015Z,5.38
2022-09-05T08:47:49.458Z,5.55
2022-09-05T08:50:26.804Z,4.47
2022-09-05T08:53:18.700Z,8.50
2022-09-05T08:56:22.856Z,4.97
2022-09-05T08:59:32.128Z,4.68
2022-09-05T09:02:46.620Z,5.47
2022-09-05T09:05:14.906Z,5.30
2022-09-05T09:08:08.094Z,6.22
2022-09-05T09:11:05.071Z,5.72
2022-09-05T09:14:29.603Z,5.90
2022-09-05T09:17:08.074Z,4.82
2022-09-05T09:19:48.726Z,5.97
2022-09-05T09:22:40.376Z,4.47
2022-09-05T09:25:16.793Z,4.15
2022-09-05T09:28:48.959Z,3.92
2022-09-05T09:31:05.807Z,3.13
2022-09-05T09:33:43.595Z,3.80
2022-09-05T09:36:38.907Z,4.93
2022-09-05T09:39:38.231Z,4.40
2022-09-05T09:42:37.413Z,3.72
2022-09-05T09:45:28.310Z,3.83
2022-09-05T09:48:24.292Z,4.40
2022-09-05T09:51:29.330Z,3.53
2022-09-05T09:54:03.319Z,4.22
2022-09-05T09:56:53.635Z,2.90
2022-09-05T09:59:53.886Z,4.60
2022-09-05T10:03:26.975Z,1.88
2022-09-05T10:10:24.724Z,4.35
2022-09-05T10:10:58.387Z,3.72
2022-09-05T10:12:01.300Z,3.17
2022-09-05T10:14:50.767Z,5.03
2022-09-05T10:17:24.460Z,3.25
2022-09-05T10:20:10.351Z,2.58
2022-09-05T10:23:00.282Z,3.67
2022-09-05T10:26:06.322Z,2.75
2022-09-05T10:28:45.074Z,2.17
2022-09-05T10:33:06.626Z,1.38
2022-09-05T10:35:14.710Z,4.72
2022-09-05T10:37:15.091Z,2.40
2022-09-05T10:40:02.448Z,1.33
2022-09-05T10:42:59.771Z,1.83
2022-09-05T10:45:42.173Z,2.53
2022-09-05T10:50:52.204Z,1.58
2022-09-05T10:53:39.972Z,4.18
2022-09-05T10:56:22.845Z,3.25
2022-09-05T11:00:38.421Z,4.05
2022-09-05T11:02:30.157Z,1.90
2022-09-05T11:05:12.134Z,2.72
2022-09-05T11:07:42.290Z,3.90
2022-09-05T11:10:31.826Z,1.73
2022-09-05T11:13:17.081Z,2.28
2022-09-05T11:16:04.253Z,1.42
2022-09-05T11:18:56.289Z,2.08
2022-09-05T11:21:45.759Z,4.85
2022-09-05T11:24:35.941Z,2.17
2022-09-05T11:27:24.811Z,3.08
2022-09-05T11:30:03.308Z,1.73
2022-09-05T11:37:41.652Z,4.53
2022-09-05T11:39:52.067Z,1.60
2022-09-05T11:39:53.050Z,3.53
2022-09-05T11:41:57.761Z,5.60
2022-09-05T11:44:40.195Z,3.95
2022-09-05T11:47:27.946Z,4.28
2022-09-05T11:50:39.370Z,1.75
2022-09-05T11:53:43.870Z,1.55
2022-09-05T11:56:28.838Z,3.38
2022-09-05T11:59:15.295Z,3.47
2022-09-05T12:02:24.886Z,2.47
2022-09-05T12:05:50.818Z,4.85
2022-09-05T12:08:24.371Z,1.92
2022-09-05T12:11:17.015Z,2.92
2022-09-05T12:13:51.304Z,2.90
2022-09-05T12:16:30.483Z,1.00
2022-09-05T12:19:19.779Z,3.30
2022-09-05T12:22:08.799Z,4.15
2022-09-05T12:27:39.428Z,3.30
2022-09-05T12:29:32.586Z,4.78
2022-09-05T12:32:30.592Z,4.30
2022-09-05T12:36:11.451Z,1.83
2022-09-05T12:40:00.919Z,3.67
2022-09-05T12:44:36.294Z,1.35
2022-09-05T12:46:46.622Z,2.38
2022-09-05T12:49:47.441Z,4.40
2022-09-05T12:52:35.726Z,2.00
2022-09-05T12:55:16.739Z,3.63
2022-09-05T13:02:55.478Z,1.65
2022-09-05T13:03:06.458Z,3.58
2022-09-05T13:03:53.354Z,2.38
2022-09-05T13:06:33.381Z,1.17
2022-09-05T13:09:21.435Z,2.42
2022-09-05T13:14:54.036Z,0.75
2022-09-05T13:15:24.103Z,3.75
2022-09-05T13:18:10.506Z,5.75
2022-09-05T13:20:45.755Z,4.53
2022-09-05T13:23:24.767Z,3.03
2022-09-05T13:26:08.080Z,3.97
2022-09-05T13:28:52.868Z,2.30
2022-09-05T13:38:03.760Z,2.05
2022-09-05T13:38:15.190Z,4.47
2022-09-05T13:38:17.981Z,3.30
2022-09-05T13:40:31.845Z,1.65
2022-09-05T13:43:08.581Z,4.20
2022-09-05T13:45:51.586Z,1.08
2022-09-05T13:51:38.186Z,2.17
2022-09-05T13:54:16.533Z,1.80
2022-09-05T13:57:07.405Z,2.00
2022-09-05T13:59:42.283Z,3.15
2022-09-05T14:02:28.363Z,0.88
2022-09-05T14:05:21.193Z,2.35
2022-09-05T14:08:17.982Z,3.28
2022-09-05T14:11:02.362Z,1.98
2022-09-05T14:13:45.045Z,2.03
2022-09-05T14:16:19.101Z,1.65
2022-09-05T14:19:07.567Z,2.28
2022-09-05T14:21:39.047Z,3.42
2022-09-05T14:24:27.435Z,2.53
2022-09-05T14:26:59.073Z,2.45
2022-09-05T14:29:49.910Z,1.65
2022-09-05T14:37:36.554Z,1.50
2022-09-05T14:37:49.872Z,2.65
2022-09-05T14:38:25.639Z,1.73
2022-09-05T14:41:30.244Z,2.55
2022-09-05T14:44:08.402Z,1.48
2022-09-05T14:47:02.580Z,3.20
2022-09-05T14:49:42.059Z,1.30
2022-09-05T14:52:29.880Z,2.25
2022-09-05T15:02:46.362Z,1.90
2022-09-05T15:02:48.564Z,1.50
2022-09-05T15:06:38.724Z,2.47
2022-09-05T15:11:41.093Z,2.40
2022-09-05T15:12:31.322Z,2.88
2022-09-05T15:15:15.709Z,3.50
2022-09-05T15:18:11.383Z,3.67
2022-09-05T15:20:44.799Z,3.35
2022-09-05T15:23:28.632Z,2.38
2022-09-05T15:26:31.072Z,3.83
2022-09-05T15:29:14.512Z,2.45
2022-09-05T15:31:42.684Z,2.45
2022-09-05T15:34:26.703Z,4.07
2022-09-05T15:36:55.799Z,5.15
2022-09-05T15:39:36.631Z,2.70
2022-09-05T15:42:17.105Z,3.08
2022-09-05T15:45:08.737Z,3.95
2022-09-05T15:47:34.075Z,3.13
2022-09-05T15:50:07.430Z,2.92
2022-09-05T15:52:54.905Z,2.20
2022-09-05T15:55:27.441Z,2.83
2022-09-05T15:58:05.371Z,4.68
2022-09-05T16:00:55.669Z,2.83
2022-09-05T16:09:21.812Z,2.70
2022-09-05T16:10:45.803Z,5.13
2022-09-05T16:10:48.951Z,2.20
2022-09-05T16:12:37.095Z,4.10
2022-09-05T16:16:33.715Z,3.90
2022-09-05T16:23:34.269Z,5.00
2022-09-05T16:23:34.960Z,2.80
2022-09-05T16:24:05.629Z,4.43
2022-09-05T16:26:40.117Z,7.15
2022-09-05T16:29:13.326Z,6.55
2022-09-05T16:31:48.331Z,12.05
2022-09-05T16:34:29.552Z,10.57
2022-09-05T16:37:13.195Z,9.25
2022-09-05T16:39:53.186Z,15.35
2022-09-05T16:42:46.849Z,21.17
2022-09-05T16:45:46.107Z,16.83
2022-09-05T16:48:36.558Z,13.50
2022-09-05T16:51:13.515Z,13.15
2022-09-05T16:53:59.071Z,13.70
2022-09-05T16:56:35.065Z,11.80
2022-09-05T16:59:24.626Z,12.23
2022-09-05T17:02:07.393Z,11.18
2022-09-05T17:04:56.345Z,27.83
2022-09-05T17:08:14.159Z,34.13
2022-09-05T17:10:50.746Z,22.80
2022-09-05T17:13:34.486Z,15.25
2022-09-05T17:16:03.997Z,13.73
2022-09-05T17:18:37.209Z,15.82
2022-09-05T17:21:09.942Z,14.63
2022-09-05T17:29:15.248Z,16.60
2022-09-05T17:29:41.139Z,15.90
2022-09-05T17:32:21.270Z,18.58
2022-09-05T17:35:17.335Z,23.27
2022-09-05T17:38:12.153Z,24.88
2022-09-05T17:40:42.944Z,36.30
2022-09-05T17:43:28.364Z,22.90
2022-09-05T17:46:23.767Z,16.23
2022-09-05T17:49:18.698Z,27.95
2022-09-05T17:52:02.248Z,23.20
2022-09-05T17:54:32.092Z,21.92
2022-09-05T17:57:28.446Z,18.38
2022-09-05T17:59:59.784Z,12.90
2022-09-05T18:02:32.040Z,21.08
2022-09-05T18:05:01.404Z,20.45
2022-09-05T18:07:29.470Z,15.70
2022-09-05T18:13:31.827Z,18.08
2022-09-05T18:16:00.164Z,16.73
2022-09-05T18:18:55.917Z,24.77
2022-09-05T18:21:25.919Z,25.60
2022-09-05T18:24:12.039Z,30.35
2022-09-05T18:26:48.818Z,56.80
2022-09-05T18:29:57.606Z,50.42
2022-09-05T18:32:38.418Z,66.15
2022-09-05T18:35:29.265Z,55.47
2022-09-05T18:38:05.334Z,78.80
2022-09-05T18:40:43.871Z,48.30
2022-09-05T18:43:30.143Z,22.58
2022-09-05T18:46:05.272Z,24.92
2022-09-05T18:49:15.920Z,21.60
2022-09-05T18:51:57.841Z,35.78
2022-09-05T18:54:29.532Z,47.22
2022-09-05T18:57:22.538Z,40.97
2022-09-05T18:59:53.994Z,42.95
2022-09-05T19:02:51.186Z,37.63
2022-09-05T19:05:28.499Z,31.55
2022-09-05T19:07:59.779Z,36.33
2022-09-05T19:10:34.918Z,29.75
2022-09-05T19:13:28.704Z,40.15
2022-09-05T19:16:42.867Z,34.35
2022-09-05T19:19:07.367Z,31.10
2022-09-05T19:21:46.545Z,26.50
2022-09-05T19:24:33.082Z,20.80
2022-09-05T19:28:09.707Z,20.23
2022-09-05T19:36:45.283Z,17.67
2022-09-05T19:37:08.547Z,16.80
2022-09-05T19:37:12.860Z,22.40
2022-09-05T19:41:38.252Z,12.02
2022-09-05T19:47:25.642Z,16.30
2022-09-05T19:47:49.092Z,17.55
2022-09-05T19:47:55.653Z,23.10
2022-09-05T19:50:25.318Z,23.15
2022-09-05T19:53:04.055Z,29.08
2022-09-05T19:55:37.999Z,25.13
2022-09-05T19:58:19.225Z,18.80
2022-09-05T20:01:00.433Z,23.92
2022-09-05T20:03:34.582Z,27.98
2022-09-05T20:06:29.654Z,18.98
2022-09-05T20:09:14.749Z,22.00
2022-09-05T20:11:47.578Z,22.52
2022-09-05T20:14:18.072Z,22.08
2022-09-05T20:16:46.618Z,17.38
2022-09-05T20:19:29.284Z,20.35
2022-09-05T20:22:10.100Z,20.00
2022-09-05T20:24:51.112Z,20.02
2022-09-05T20:27:19.151Z,20.60
2022-09-05T20:30:01.688Z,19.73
2022-09-05T20:32:39.507Z,21.05
2022-09-05T20:42:41.422Z,18.48
2022-09-05T20:43:28.034Z,14.10
2022-09-05T20:43:31.023Z,15.65
2022-09-05T20:44:22.591Z,17.30
2022-09-05T20:50:26.037Z,17.02
2022-09-05T20:54:19.246Z,18.77
2022-09-05T20:54:28.320Z,23.13
2022-09-05T20:55:41.317Z,19.42
2022-09-05T20:58:21.059Z,21.15
2022-09-05T21:01:20.441Z,12.10
2022-09-05T21:03:53.543Z,10.52
2022-09-05T21:06:22.809Z,11.55
2022-09-05T21:08:52.484Z,14.25
2022-09-05T21:11:30.326Z,18.52
2022-09-05T21:14:02.599Z,14.75
2022-09-05T21:16:37.696Z,15.32
2022-09-05T21:19:05.222Z,11.45
2022-09-05T21:21:34.927Z,12.55
2022-09-05T21:24:17.922Z,14.70
2022-09-05T21:26:50.131Z,13.98
2022-09-05T21:29:27.570Z,13.35
2022-09-05T21:32:02.527Z,12.32
2022-09-05T21:34:45.088Z,15.02
2022-09-05T21:37:15.685Z,9.18
2022-09-05T21:39:57.178Z,10.90
2022-09-05T21:47:33.355Z,9.20
2022-09-05T21:47:39.037Z,9.65
2022-09-05T21:48:08.481Z,13.25
2022-09-05T21:50:45.877Z,10.70
2022-09-05T21:59:21.069Z,7.95
2022-09-05T21:59:22.148Z,9.15
2022-09-05T22:02:07.307Z,9.55
2022-09-05T22:04:40.900Z,12.18
2022-09-05T22:07:16.379Z,9.90
2022-09-05T22:09:58.386Z,10.55
2022-09-05T22:12:31.386Z,15.25
2022-09-05T22:15:07.286Z,26.23
2022-09-05T22:17:47.326Z,37.20
2022-09-05T22:20:17.069Z,33.92
2022-09-05T22:22:56.140Z,21.60
2022-09-05T22:25:32.104Z,18.98
2022-09-05T22:28:06.770Z,26.15
2022-09-05T22:30:39.382Z,23.15
2022-09-05T22:33:08.033Z,20.92
2022-09-05T22:35:37.248Z,20.40
2022-09-05T22:38:12.430Z,22.38
2022-09-05T22:40:41.601Z,13.93
2022-09-05T22:43:10.716Z,13.65
2022-09-05T22:45:41.610Z,15.57
2022-09-05T22:48:11.354Z,15.40
2022-09-05T22:50:39.768Z,13.07
2022-09-05T22:53:08.756Z,15.30
2022-09-05T22:55:42.018Z,16.52
2022-09-05T22:58:12.319Z,15.40
2022-09-05T23:00:40.109Z,16.58
2022-09-05T23:03:07.844Z,13.35
2022-09-05T23:05:35.514Z,13.88
2022-09-05T23:08:04.913Z,13.63
2022-09-05T23:10:33.173Z,11.43
2022-09-05T23:13:08.580Z,12.98
2022-09-05T23:15:36.773Z,12.57
2022-09-05T23:18:05.050Z,15.15
2022-09-05T23:20:33.166Z,12.73
2022-09-05T23:23:04.979Z,11.93
2022-09-05T23:25:33.596Z,13.02
2022-09-05T23:28:06.930Z,12.70
2022-09-05T23:30:38.964Z,11.63
2022-09-05T23:33:08.229Z,11.35
2022-09-05T23:35:36.721Z,13.98
2022-09-05T23:38:09.255Z,12.32
2022-09-05T23:40:36.719Z,12.23
2022-09-05T23:43:05.527Z,16.30
2022-09-05T23:45:33.064Z,11.75
2022-09-05T23:48:00.673Z,10.35
2022-09-05T23:50:28.842Z,11.35
2022-09-05T23:52:56.291Z,12.70
2022-09-05T23:55:23.909Z,11.88
2022-09-05T23:57:57.379Z,10.48
